Time;durP1;ratioP1;P1;durP2;ratioP2;P2;SDS_P1;SDS_P2;PMS_P1;PMS_P2;Temp;Humidity;BMP_temperature;BMP_pressure;BME280_temperature;BME280_humidity;BME280_pressure;Samples;Min_cycle;Max_cycle;Signal;HPM_P1;HPM_P2
2022/04/08 00:00:49;;;;;;;7.47;2.35;;;12.60;99.90;;;;;;5097557;28;20024;-76
2022/04/08 00:03:15;;;;;;;5.15;2.70;;;12.60;99.90;;;;;;5097408;28;20035;-76
2022/04/08 00:05:41;;;;;;;3.88;2.30;;;12.60;99.90;;;;;;5097161;28;20031;-76
2022/04/08 00:08:07;;;;;;;5.28;2.55;;;12.70;99.90;;;;;;5096234;28;20028;-76
2022/04/08 00:10:33;;;;;;;3.50;3.10;;;12.60;99.90;;;;;;5096169;28;20028;-76
2022/04/08 00:12:59;;;;;;;6.32;2.65;;;12.60;99.90;;;;;;5097330;28;20059;-76
2022/04/08 00:15:25;;;;;;;5.55;2.47;;;12.60;99.90;;;;;;5097401;28;20062;-75
2022/04/08 00:17:50;;;;;;;5.20;2.58;;;12.60;99.90;;;;;;5096041;28;20032;-75
2022/04/08 00:20:17;;;;;;;3.88;2.50;;;12.70;99.90;;;;;;5096979;28;20020;-76
2022/04/08 00:22:43;;;;;;;3.72;2.80;;;12.70;99.90;;;;;;5097356;28;20051;-76
2022/04/08 00:25:09;;;;;;;2.80;2.42;;;12.70;99.90;;;;;;5096011;28;20115;-75
2022/04/08 00:27:35;;;;;;;3.53;2.72;;;12.70;99.90;;;;;;5097024;28;20027;-76
2022/04/08 00:30:01;;;;;;;3.70;2.38;;;12.70;99.90;;;;;;5097225;28;20485;-76
2022/04/08 00:32:27;;;;;;;3.88;2.55;;;12.70;99.90;;;;;;5097156;28;20024;-76
2022/04/08 00:34:53;;;;;;;6.18;3.03;;;12.70;99.90;;;;;;5095682;28;20020;-76
2022/04/08 00:37:19;;;;;;;5.65;2.60;;;12.70;99.90;;;;;;5095861;28;20435;-77
2022/04/08 00:39:45;;;;;;;6.40;3.30;;;12.70;99.90;;;;;;5097087;28;20028;-76
2022/04/08 00:42:14;;;;;;;3.25;2.67;;;12.70;99.90;;;;;;5095948;28;20028;-76
2022/04/08 00:44:40;;;;;;;4.35;2.40;;;12.70;99.90;;;;;;5095634;28;20093;-77
2022/04/08 00:47:06;;;;;;;4.80;2.53;;;12.70;99.90;;;;;;5095859;28;20114;-76
2022/04/08 00:49:37;;;;;;;3.67;2.97;;;12.70;99.90;;;;;;5096781;28;20020;-76
2022/04/08 00:52:04;;;;;;;5.75;2.85;;;12.70;99.90;;;;;;5097272;28;20108;-76
2022/04/08 00:54:30;;;;;;;8.15;3.10;;;12.60;99.90;;;;;;5095875;28;20081;-76
2022/04/08 00:56:57;;;;;;;4.47;2.60;;;12.60;99.90;;;;;;5095519;28;20020;-76
2022/04/08 00:59:27;;;;;;;5.50;3.00;;;12.50;99.90;;;;;;5096987;28;20395;-76
2022/04/08 01:01:53;;;;;;;3.97;2.50;;;12.40;99.90;;;;;;5099748;28;20056;-77
2022/04/08 01:04:21;;;;;;;6.95;2.72;;;12.40;99.90;;;;;;5099102;28;20024;-76
2022/04/08 01:06:47;;;;;;;3.80;2.53;;;12.30;99.90;;;;;;5099605;28;20024;-76
2022/04/08 01:09:14;;;;;;;6.50;3.03;;;12.30;99.90;;;;;;5099349;28;20032;-76
2022/04/08 01:11:42;;;;;;;7.70;3.58;;;12.30;99.90;;;;;;5099737;28;20445;-76
2022/04/08 01:14:16;;;;;;;6.93;2.80;;;12.30;99.90;;;;;;5100699;28;20016;-76
2022/04/08 01:16:42;;;;;;;6.90;3.40;;;12.30;99.90;;;;;;5099253;28;20024;-76
2022/04/08 01:19:08;;;;;;;6.18;2.92;;;12.30;99.90;;;;;;5100058;28;20016;-76
2022/04/08 01:21:34;;;;;;;4.90;3.10;;;12.40;99.90;;;;;;5100478;28;20085;-76
2022/04/08 01:24:03;;;;;;;8.18;2.75;;;12.40;99.90;;;;;;5099079;28;20016;-76
2022/04/08 01:26:29;;;;;;;9.35;4.25;;;12.30;99.90;;;;;;5099041;28;20024;-76
2022/04/08 01:28:56;;;;;;;4.93;3.10;;;12.40;99.90;;;;;;5100240;28;20046;-76
2022/04/08 01:31:24;;;;;;;6.30;2.92;;;12.40;99.90;;;;;;5098939;28;20052;-76
2022/04/08 01:33:52;;;;;;;7.18;3.88;;;12.40;99.90;;;;;;5099893;28;20074;-76
2022/04/08 01:36:18;;;;;;;8.80;2.92;;;12.40;99.90;;;;;;5098976;28;20019;-76
2022/04/08 01:38:44;;;;;;;8.57;3.10;;;12.40;99.90;;;;;;5098881;28;20111;-75
2022/04/08 01:41:10;;;;;;;8.55;3.70;;;12.40;99.90;;;;;;5100296;28;20016;-75
2022/04/08 01:43:36;;;;;;;6.05;3.13;;;12.40;99.90;;;;;;5099964;28;20028;-76
2022/04/08 01:46:02;;;;;;;9.07;3.15;;;12.40;99.90;;;;;;5099968;28;20040;-76
2022/04/08 01:48:28;;;;;;;6.30;3.08;;;12.30;99.90;;;;;;5099999;28;20028;-76
2022/04/08 01:50:54;;;;;;;4.85;2.90;;;12.30;99.90;;;;;;5099780;28;20099;-76
2022/04/08 01:53:19;;;;;;;5.53;3.10;;;12.20;99.90;;;;;;5099756;28;20032;-76
2022/04/08 01:55:45;;;;;;;5.85;3.40;;;12.30;99.90;;;;;;5098565;28;20024;-76
2022/04/08 01:58:11;;;;;;;11.93;4.25;;;12.20;99.90;;;;;;5099670;28;20027;-76
2022/04/08 02:00:38;;;;;;;8.93;3.28;;;12.20;99.90;;;;;;5099888;28;20020;-76
2022/04/08 02:03:04;;;;;;;9.25;3.28;;;12.20;99.90;;;;;;5099894;28;20035;-76
2022/04/08 02:05:30;;;;;;;7.55;3.42;;;12.10;99.90;;;;;;5098094;28;20492;-76
2022/04/08 02:07:56;;;;;;;4.97;3.17;;;12.10;99.90;;;;;;5098255;28;20412;-76
2022/04/08 02:10:23;;;;;;;6.40;3.30;;;12.10;99.90;;;;;;5098815;28;20027;-76
2022/04/08 02:12:49;;;;;;;10.95;3.95;;;12.10;99.90;;;;;;5099096;28;20035;-75
2022/04/08 02:15:15;;;;;;;14.68;4.90;;;12.10;99.90;;;;;;5099519;28;20012;-75
2022/04/08 02:17:41;;;;;;;4.13;2.92;;;12.10;99.90;;;;;;5099354;28;20032;-76
2022/04/08 02:20:10;;;;;;;6.95;3.33;;;12.00;99.90;;;;;;5099107;28;20020;-76
2022/04/08 02:22:36;;;;;;;6.57;3.70;;;12.00;99.90;;;;;;5086215;28;20411;-76
2022/04/08 02:25:05;;;;;;;6.55;3.95;;;12.00;99.90;;;;;;5099266;28;20024;-76
2022/04/08 02:27:32;;;;;;;6.32;3.10;;;12.00;99.90;;;;;;5098263;28;20054;-76
2022/04/08 02:29:59;;;;;;;6.22;3.08;;;12.00;99.90;;;;;;5099243;28;20024;-76
2022/04/08 02:32:25;;;;;;;3.78;3.33;;;12.00;99.90;;;;;;5097695;28;20453;-76
2022/04/08 02:34:52;;;;;;;5.40;3.30;;;12.00;99.90;;;;;;5097783;28;20024;-76
2022/04/08 02:37:18;;;;;;;8.13;3.42;;;12.00;99.90;;;;;;5098031;28;20054;-76
2022/04/08 02:39:44;;;;;;;8.02;3.03;;;12.00;99.90;;;;;;5099065;28;20031;-76
2022/04/08 02:42:10;;;;;;;6.07;3.67;;;12.00;99.90;;;;;;5085345;28;20095;-75
2022/04/08 02:44:36;;;;;;;6.18;3.47;;;11.90;99.90;;;;;;5098771;28;20532;-76
2022/04/08 02:47:02;;;;;;;7.15;3.22;;;11.80;99.90;;;;;;5099045;28;20069;-75
2022/04/08 02:49:28;;;;;;;6.38;3.70;;;11.80;99.90;;;;;;5098732;28;20058;-75
2022/04/08 02:51:54;;;;;;;5.70;3.92;;;11.80;99.90;;;;;;5098857;28;20020;-75
2022/04/08 02:54:20;;;;;;;7.03;4.03;;;11.80;99.90;;;;;;5098972;28;20028;-75
2022/04/08 02:56:46;;;;;;;5.30;3.90;;;11.70;99.90;;;;;;5097265;28;20027;-75
2022/04/08 02:59:12;;;;;;;6.57;4.05;;;11.70;99.90;;;;;;5098678;28;20024;-75
2022/04/08 03:01:38;;;;;;;10.40;4.18;;;11.70;99.90;;;;;;5097376;28;20047;-75
2022/04/08 03:04:06;;;;;;;6.85;4.30;;;11.70;99.90;;;;;;5097028;28;20054;-75
2022/04/08 03:06:33;;;;;;;6.72;4.72;;;11.70;99.90;;;;;;5098627;28;20065;-75
2022/04/08 03:08:59;;;;;;;7.97;4.65;;;11.70;99.90;;;;;;5098509;28;20051;-75
2022/04/08 03:11:25;;;;;;;9.50;4.07;;;11.60;99.90;;;;;;5098440;28;20024;-76
2022/04/08 03:13:51;;;;;;;8.35;4.72;;;11.50;99.90;;;;;;5097200;28;20046;-76
2022/04/08 03:16:16;;;;;;;6.45;4.22;;;11.50;99.90;;;;;;5097176;28;20496;-76
2022/04/08 03:18:42;;;;;;;6.63;3.75;;;11.40;99.90;;;;;;5096591;28;20074;-76
2022/04/08 03:21:08;;;;;;;5.97;4.05;;;11.30;99.90;;;;;;5097115;28;20025;-76
2022/04/08 03:23:34;;;;;;;7.45;4.25;;;11.20;99.90;;;;;;5098012;28;20027;-76
2022/04/08 03:26:00;;;;;;;8.00;3.95;;;11.20;99.90;;;;;;5098299;28;20504;-76
2022/04/08 03:28:26;;;;;;;6.22;4.25;;;11.10;99.90;;;;;;5096790;28;20020;-75
2022/04/08 03:30:53;;;;;;;9.93;4.57;;;11.00;99.90;;;;;;5084768;28;20097;-75
2022/04/08 03:33:19;;;;;;;5.90;3.95;;;10.90;99.90;;;;;;5096545;28;20032;-76
2022/04/08 03:35:45;;;;;;;6.85;4.35;;;10.90;99.90;;;;;;5097724;28;20506;-75
2022/04/08 03:38:10;;;;;;;5.63;4.30;;;10.90;99.90;;;;;;5098210;28;20086;-75
2022/04/08 03:40:36;;;;;;;6.60;4.07;;;10.80;99.90;;;;;;5097980;28;20031;-75
2022/04/08 03:43:03;;;;;;;12.15;5.10;;;10.90;99.90;;;;;;5097724;28;20028;-76
2022/04/08 03:45:29;;;;;;;6.93;4.50;;;11.10;99.90;;;;;;5097799;28;20529;-75
2022/04/08 03:47:55;;;;;;;6.72;4.45;;;11.20;99.90;;;;;;5096412;28;20051;-76
2022/04/08 03:50:21;;;;;;;10.73;4.70;;;11.30;99.90;;;;;;5096283;28;20554;-76
2022/04/08 03:52:47;;;;;;;5.03;4.45;;;11.30;99.90;;;;;;5096162;28;20036;-76
2022/04/08 03:55:13;;;;;;;6.63;4.63;;;11.30;99.90;;;;;;5097732;28;20431;-76
2022/04/08 03:57:39;;;;;;;8.82;4.22;;;11.30;99.90;;;;;;5095957;28;20468;-76
2022/04/08 04:00:07;;;;;;;7.35;3.95;;;11.30;99.90;;;;;;5097749;28;20043;-76
2022/04/08 04:02:33;;;;;;;9.65;4.57;;;11.30;99.90;;;;;;5096211;28;20054;-76
2022/04/08 04:04:59;;;;;;;7.07;4.05;;;11.40;99.90;;;;;;5097349;28;20020;-77
2022/04/08 04:07:26;;;;;;;6.13;3.72;;;11.40;99.90;;;;;;5096392;28;20077;-76
2022/04/08 04:09:53;;;;;;;10.20;4.13;;;11.50;99.90;;;;;;5096184;28;20024;-76
2022/04/08 04:12:19;;;;;;;6.05;3.97;;;11.50;99.90;;;;;;5097214;28;20499;-76
2022/04/08 04:14:44;;;;;;;5.45;4.55;;;11.50;99.90;;;;;;5096301;28;20019;-76
2022/04/08 04:17:10;;;;;;;6.68;4.25;;;11.60;99.90;;;;;;5097365;28;20476;-76
2022/04/08 04:19:36;;;;;;;10.40;4.45;;;11.60;99.90;;;;;;5097113;28;20464;-75
2022/04/08 04:22:03;;;;;;;7.20;4.05;;;11.60;99.90;;;;;;5097250;28;20468;-75
2022/04/08 04:24:29;;;;;;;7.15;4.10;;;11.60;99.90;;;;;;5097493;28;20024;-75
2022/04/08 04:26:55;;;;;;;5.82;3.17;;;11.70;99.90;;;;;;5097139;28;20028;-76
2022/04/08 04:29:21;;;;;;;4.70;3.40;;;11.70;99.90;;;;;;5095749;28;20031;-75
2022/04/08 04:31:47;;;;;;;3.78;3.03;;;11.80;99.90;;;;;;5095692;28;20063;-75
2022/04/08 04:34:13;;;;;;;4.97;3.00;;;11.90;99.90;;;;;;5098216;28;20016;-75
2022/04/08 04:36:39;;;;;;;9.90;3.15;;;12.00;99.90;;;;;;5100261;28;20468;-75
2022/04/08 04:39:05;;;;;;;3.92;3.08;;;12.10;99.90;;;;;;5100168;28;20016;-76
2022/04/08 04:41:32;;;;;;;4.07;3.03;;;12.10;99.90;;;;;;5101133;28;20024;-75
2022/04/08 04:43:58;;;;;;;6.55;2.88;;;12.20;99.90;;;;;;5099676;28;20041;-75
2022/04/08 04:46:24;;;;;;;4.55;2.83;;;12.20;99.90;;;;;;5099741;28;20442;-75
2022/04/08 04:48:50;;;;;;;4.85;2.90;;;12.30;99.90;;;;;;5101102;28;20027;-75
2022/04/08 04:51:16;;;;;;;6.53;3.58;;;12.30;99.90;;;;;;5101080;28;20028;-76
2022/04/08 04:53:42;;;;;;;10.07;3.08;;;12.30;99.90;;;;;;5101064;28;20046;-75
2022/04/08 04:56:08;;;;;;;3.30;2.63;;;12.30;99.90;;;;;;5100911;28;20512;-76
2022/04/08 04:58:34;;;;;;;9.52;3.13;;;12.30;99.90;;;;;;5101184;28;20042;-75
2022/04/08 05:01:00;;;;;;;3.67;2.88;;;12.40;99.90;;;;;;5101125;28;20488;-76
2022/04/08 05:03:26;;;;;;;6.72;2.95;;;12.40;99.90;;;;;;5100928;28;20492;-76
2022/04/08 05:05:53;;;;;;;4.28;2.97;;;12.40;99.90;;;;;;5099436;28;20094;-75
2022/04/08 05:08:20;;;;;;;6.85;2.90;;;12.40;99.90;;;;;;5100977;28;20052;-75
2022/04/08 05:10:47;;;;;;;6.25;3.00;;;12.50;99.90;;;;;;5098352;28;20035;-75
2022/04/08 05:13:13;;;;;;;4.45;2.80;;;12.50;99.90;;;;;;5100639;28;20097;-75
2022/04/08 05:15:42;;;;;;;4.70;2.92;;;12.50;99.90;;;;;;5100906;28;20024;-76
2022/04/08 05:18:09;;;;;;;7.38;3.05;;;12.50;99.90;;;;;;5099438;28;20054;-76
2022/04/08 05:20:35;;;;;;;6.05;3.10;;;12.40;99.90;;;;;;5098885;28;20031;-76
2022/04/08 05:23:01;;;;;;;4.00;2.65;;;12.40;99.90;;;;;;5099706;28;20024;-76
2022/04/08 05:25:27;;;;;;;6.25;2.90;;;12.40;99.90;;;;;;5099405;28;20476;-75
2022/04/08 05:27:54;;;;;;;7.95;3.10;;;12.30;99.90;;;;;;5100510;28;20099;-76
2022/04/08 05:30:20;;;;;;;4.15;3.03;;;12.20;99.90;;;;;;5100611;28;20460;-76
2022/04/08 05:32:49;;;;;;;3.80;2.60;;;12.20;99.90;;;;;;5100357;28;20392;-76
2022/04/08 05:35:17;;;;;;;6.43;2.95;;;12.00;99.90;;;;;;5099949;28;20020;-75
2022/04/08 05:37:45;;;;;;;5.80;2.80;;;12.00;99.90;;;;;;5099383;28;20471;-75
2022/04/08 05:40:20;;;;;;;6.88;3.83;;;11.90;99.90;;;;;;5096054;28;20035;-75
2022/04/08 05:42:47;;;;;;;7.13;3.25;;;11.80;99.90;;;;;;5098726;28;20024;-75
2022/04/08 05:45:16;;;;;;;5.38;3.83;;;11.70;99.90;;;;;;5091490;28;20512;-75
2022/04/08 05:47:42;;;;;;;4.03;3.63;;;11.50;99.90;;;;;;5086013;28;20503;-75
2022/04/08 05:50:09;;;;;;;6.60;4.05;;;11.40;99.90;;;;;;5098579;28;20052;-75
2022/04/08 05:52:35;;;;;;;9.65;4.70;;;11.40;99.90;;;;;;5099955;28;20028;-75
2022/04/08 05:55:01;;;;;;;6.10;4.38;;;11.40;99.90;;;;;;5098606;28;20028;-75
2022/04/08 05:57:26;;;;;;;5.28;3.88;;;11.40;99.90;;;;;;5098213;28;20016;-75
2022/04/08 05:59:59;;;;;;;10.10;4.70;;;11.40;99.90;;;;;;5099606;28;20020;-75
2022/04/08 06:02:25;;;;;;;6.85;5.25;;;11.50;99.90;;;;;;5097085;28;20556;-75
2022/04/08 06:04:51;;;;;;;11.32;5.93;;;11.50;99.90;;;;;;5098051;28;20396;-77
2022/04/08 06:07:16;;;;;;;16.48;6.30;;;11.50;99.90;;;;;;5098416;28;20024;-77
2022/04/08 06:09:42;;;;;;;9.90;6.15;;;11.60;99.90;;;;;;5098418;28;20051;-77
2022/04/08 06:12:08;;;;;;;11.15;6.38;;;11.60;99.90;;;;;;5099945;28;20109;-78
2022/04/08 06:14:34;;;;;;;7.97;4.85;;;11.70;99.90;;;;;;5098354;28;20024;-78
2022/04/08 06:17:00;;;;;;;9.45;6.00;;;11.70;99.90;;;;;;5096953;28;20557;-78
2022/04/08 06:19:26;;;;;;;7.20;4.72;;;11.70;99.90;;;;;;5099136;28;20522;-77
2022/04/08 06:21:52;;;;;;;9.02;5.00;;;11.70;99.90;;;;;;5097639;28;20403;-77
2022/04/08 06:24:18;;;;;;;9.80;4.13;;;11.70;99.90;;;;;;5098843;28;20035;-77
2022/04/08 06:26:43;;;;;;;7.38;5.07;;;11.80;99.90;;;;;;5096113;28;20427;-77
2022/04/08 06:29:09;;;;;;;11.60;5.30;;;11.80;99.90;;;;;;5082782;28;20027;-77
2022/04/08 06:31:35;;;;;;;12.07;7.28;;;11.80;99.90;;;;;;5097533;28;20023;-77
2022/04/08 06:34:01;;;;;;;8.75;6.47;;;11.90;99.90;;;;;;5088343;28;20063;-77
2022/04/08 06:36:28;;;;;;;7.40;4.97;;;12.00;99.90;;;;;;5094457;28;20012;-78
2022/04/08 06:38:55;;;;;;;12.13;5.72;;;12.20;99.90;;;;;;5096910;28;20020;-78
2022/04/08 06:41:21;;;;;;;9.70;5.43;;;12.50;99.90;;;;;;5095937;28;20024;-78
2022/04/08 06:43:47;;;;;;;7.47;5.63;;;12.70;99.90;;;;;;5098763;28;20015;-78
2022/04/08 06:46:13;;;;;;;7.70;5.80;;;12.80;99.90;;;;;;5098363;28;20047;-78
2022/04/08 06:48:39;;;;;;;11.32;5.78;;;13.00;99.90;;;;;;5094395;28;20054;-78
2022/04/08 06:51:05;;;;;;;9.52;5.07;;;13.00;99.90;;;;;;5092189;28;20062;-77
2022/04/08 06:53:32;;;;;;;6.75;4.95;;;13.00;99.90;;;;;;5098906;28;20039;-77
2022/04/08 06:56:01;;;;;;;10.18;4.45;;;13.00;99.90;;;;;;5098641;28;20055;-78
2022/04/08 06:58:27;;;;;;;7.82;4.40;;;12.90;99.90;;;;;;5098331;28;20031;-77
2022/04/08 07:00:54;;;;;;;7.22;4.47;;;12.80;99.90;;;;;;5097665;28;20088;-76
2022/04/08 07:03:21;;;;;;;7.90;4.88;;;12.80;99.90;;;;;;5098563;28;20024;-77
2022/04/08 07:05:47;;;;;;;8.65;4.65;;;12.70;99.90;;;;;;5098654;28;20388;-77
2022/04/08 07:08:13;;;;;;;9.05;5.10;;;12.70;99.90;;;;;;5097304;28;20042;-77
2022/04/08 07:10:40;;;;;;;11.73;4.78;;;12.80;99.90;;;;;;5097414;28;20499;-77
2022/04/08 07:13:06;;;;;;;7.53;3.92;;;12.90;99.90;;;;;;5096112;28;20496;-77
2022/04/08 07:15:33;;;;;;;7.45;3.63;;;12.90;99.90;;;;;;5097244;28;20415;-78
2022/04/08 07:17:59;;;;;;;9.95;4.60;;;13.00;99.90;;;;;;5096495;28;20118;-77
2022/04/08 07:20:25;;;;;;;7.93;3.22;;;13.20;99.90;;;;;;5096856;28;20083;-78
2022/04/08 07:22:51;;;;;;;4.85;2.80;;;13.30;99.90;;;;;;5097045;28;20062;-77
2022/04/08 07:25:18;;;;;;;7.13;3.35;;;13.50;99.90;;;;;;5098190;28;20020;-77
2022/04/08 07:27:58;;;;;;;10.25;3.50;;;13.60;99.90;;;;;;5089195;28;20043;-77
2022/04/08 07:30:25;;;;;;;7.80;3.45;;;13.80;99.90;;;;;;5081380;28;20024;-78
2022/04/08 07:32:53;;;;;;;8.57;3.30;;;13.90;99.90;;;;;;5096213;28;20032;-79
2022/04/08 07:35:19;;;;;;;6.82;3.08;;;14.00;99.90;;;;;;5083441;28;20024;-77
2022/04/08 07:37:45;;;;;;;7.68;3.60;;;14.10;99.90;;;;;;5098185;28;20051;-78
2022/04/08 07:40:12;;;;;;;4.80;3.05;;;14.10;99.90;;;;;;5097898;28;20024;-77
2022/04/08 07:42:39;;;;;;;5.47;2.80;;;14.30;99.90;;;;;;5096622;28;20111;-79
2022/04/08 07:45:06;;;;;;;4.55;2.63;;;14.40;99.90;;;;;;5096949;28;20530;-78
2022/04/08 07:47:33;;;;;;;7.68;3.17;;;14.50;99.90;;;;;;5097938;28;20081;-79
2022/04/08 07:50:09;;;;;;;4.32;2.65;;;14.60;99.90;;;;;;5095689;28;20078;-77
2022/04/08 07:52:35;;;;;;;7.18;3.03;;;14.70;99.90;;;;;;5096303;28;20024;-79
2022/04/08 07:55:01;;;;;;;7.45;2.50;;;14.80;99.90;;;;;;5093470;28;20024;-80
2022/04/08 07:57:27;;;;;;;10.20;2.42;;;14.90;99.90;;;;;;5090065;28;20024;-79
2022/04/08 07:59:53;;;;;;;6.57;2.15;;;15.00;99.90;;;;;;5095437;28;20495;-78
2022/04/08 08:02:19;;;;;;;9.35;3.42;;;15.00;99.90;;;;;;5095856;28;20445;-80
2022/04/08 08:04:45;;;;;;;7.70;2.38;;;15.10;99.90;;;;;;5096908;28;20031;-79
2022/04/08 08:07:11;;;;;;;4.00;2.33;;;15.20;99.90;;;;;;5096983;28;20161;-81
2022/04/08 08:09:37;;;;;;;7.18;2.45;;;15.30;99.90;;;;;;5096683;28;20095;-80
2022/04/08 08:12:03;;;;;;;8.85;2.53;;;15.30;99.90;;;;;;5097271;28;20052;-80
2022/04/08 08:14:30;;;;;;;7.53;2.70;;;15.40;99.90;;;;;;5097417;28;20073;-79
2022/04/08 08:16:56;;;;;;;7.15;2.20;;;15.40;99.90;;;;;;5097469;28;20052;-79
2022/04/08 08:19:22;;;;;;;9.75;3.17;;;15.40;99.90;;;;;;5096939;28;20030;-80
2022/04/08 08:21:48;;;;;;;10.32;2.45;;;15.40;99.90;;;;;;5094572;28;20062;-79
2022/04/08 08:24:14;;;;;;;9.90;2.92;;;15.60;99.90;;;;;;5095448;28;20027;-79
2022/04/08 08:26:40;;;;;;;5.95;2.20;;;15.60;99.90;;;;;;5096638;28;20422;-80
2022/04/08 08:29:06;;;;;;;8.48;2.65;;;15.60;99.90;;;;;;5091482;28;20020;-79
2022/04/08 08:31:32;;;;;;;11.35;2.70;;;15.70;99.90;;;;;;5089419;28;20016;-80
2022/04/08 08:33:58;;;;;;;5.88;2.47;;;15.80;99.90;;;;;;5096470;28;20063;-79
2022/04/08 08:36:24;;;;;;;6.13;2.90;;;15.90;99.90;;;;;;5096567;28;20020;-80
2022/04/08 08:38:50;;;;;;;4.22;2.45;;;16.00;99.90;;;;;;5096590;28;20034;-79
2022/04/08 08:41:19;;;;;;;4.35;2.40;;;16.10;99.90;;;;;;5096889;28;20039;-79
2022/04/08 08:43:47;;;;;;;10.50;2.45;;;16.10;99.90;;;;;;5095210;28;20055;-79
2022/04/08 08:46:16;;;;;;;7.18;2.40;;;16.10;99.90;;;;;;5095406;28;20059;-79
2022/04/08 08:48:44;;;;;;;12.20;2.67;;;16.00;99.90;;;;;;5096871;28;20468;-79
2022/04/08 08:51:13;;;;;;;6.55;2.47;;;16.20;99.90;;;;;;5095784;28;20503;-80
2022/04/08 08:53:41;;;;;;;9.10;2.33;;;16.20;99.90;;;;;;5095989;28;20431;-79
2022/04/08 08:56:08;;;;;;;7.35;2.40;;;16.30;99.90;;;;;;5096961;28;20016;-79
2022/04/08 08:58:37;;;;;;;5.80;2.58;;;16.30;99.90;;;;;;5097081;28;20016;-79
2022/04/08 09:01:08;;;;;;;10.73;2.97;;;16.30;99.90;;;;;;5097245;28;20012;-79
2022/04/08 09:03:34;;;;;;;10.00;2.35;;;16.30;99.90;;;;;;5095661;28;20036;-79
2022/04/08 09:06:08;;;;;;;7.03;2.55;;;16.40;99.90;;;;;;5097079;28;20031;-79
2022/04/08 09:08:36;;;;;;;6.53;2.60;;;16.50;99.90;;;;;;5097252;28;20062;-80
2022/04/08 09:11:03;;;;;;;13.43;2.47;;;16.60;99.90;;;;;;5096932;28;20099;-80
2022/04/08 09:13:29;;;;;;;16.42;2.97;;;16.70;99.90;;;;;;5097035;28;20032;-80
2022/04/08 09:16:02;;;;;;;5.85;2.28;;;16.80;99.90;;;;;;5097812;28;20023;-79
2022/04/08 09:18:32;;;;;;;6.32;2.30;;;16.70;99.90;;;;;;5095929;28;20024;-79
2022/04/08 09:20:58;;;;;;;4.82;2.20;;;16.80;99.90;;;;;;5097982;28;20476;-79
2022/04/08 09:23:25;;;;;;;8.23;2.58;;;16.80;99.90;;;;;;5100890;28;20043;-80
2022/04/08 09:26:02;;;;;;;7.53;2.65;;;17.00;99.90;;;;;;5099459;28;20039;-78
2022/04/08 09:28:38;;;;;;;4.80;2.05;;;17.00;99.90;;;;;;5099311;28;20044;-79
2022/04/08 09:31:05;;;;;;;4.82;2.08;;;17.00;99.90;;;;;;5099083;28;20024;-79
2022/04/08 09:33:31;;;;;;;5.00;1.95;;;17.10;99.90;;;;;;5100121;28;20039;-78
2022/04/08 09:35:59;;;;;;;4.53;2.67;;;17.20;99.90;;;;;;5100035;28;20095;-80
2022/04/08 09:38:32;;;;;;;7.50;2.25;;;17.20;99.90;;;;;;5100348;28;20422;-76
2022/04/08 09:41:10;;;;;;;9.82;3.45;;;17.30;99.90;;;;;;5100334;28;20023;-77
2022/04/08 09:43:38;;;;;;;5.90;2.08;;;17.30;99.90;;;;;;5098700;28;20504;-79
2022/04/08 09:46:15;;;;;;;5.38;2.55;;;17.30;99.90;;;;;;5098627;28;20047;-78
2022/04/08 09:48:41;;;;;;;12.18;2.65;;;17.40;99.90;;;;;;5098929;28;20035;-79
2022/04/08 09:51:11;;;;;;;3.00;2.08;;;17.40;99.90;;;;;;5098743;28;20024;-77
2022/04/08 09:53:41;;;;;;;5.57;1.70;;;17.60;99.90;;;;;;5098892;28;20032;-77
2022/04/08 09:56:15;;;;;;;9.45;2.40;;;17.70;99.90;;;;;;5098618;28;20028;-79
2022/04/08 09:58:45;;;;;;;8.73;2.40;;;18.00;99.90;;;;;;5099968;28;20024;-78
2022/04/08 10:01:11;;;;;;;;;;;18.20;99.90;;;;;;5098864;28;20077;-78
2022/04/08 10:03:38;;;;;;;7.65;2.25;;;18.30;99.90;;;;;;5099702;28;19904;-79
2022/04/08 10:06:05;;;;;;;3.58;1.80;;;18.40;99.90;;;;;;5099663;28;20040;-77
2022/04/08 10:08:33;;;;;;;6.97;1.98;;;18.50;99.90;;;;;;5099719;28;20436;-79
2022/04/08 10:11:12;;;;;;;4.05;1.88;;;18.60;99.90;;;;;;5098658;28;20040;-78
2022/04/08 10:13:47;;;;;;;4.85;1.80;;;18.50;99.90;;;;;;5099635;28;20111;-78
2022/04/08 10:16:20;;;;;;;8.95;1.85;;;18.40;99.90;;;;;;5099408;28;20020;-77
2022/04/08 10:18:48;;;;;;;5.75;1.75;;;18.40;99.90;;;;;;5099450;28;20369;-77
2022/04/08 10:21:15;;;;;;;6.15;1.85;;;18.40;99.90;;;;;;5099537;28;20055;-77
2022/04/08 10:23:40;;;;;;;4.95;1.88;;;18.50;99.90;;;;;;5099497;28;20075;-77
2022/04/08 10:26:20;;;;;;;9.00;2.30;;;18.30;99.90;;;;;;5098141;28;20035;-77
2022/04/08 10:28:46;;;;;;;4.25;2.13;;;18.40;99.90;;;;;;5093928;28;20056;-77
2022/04/08 10:31:20;;;;;;;10.40;2.63;;;18.50;99.90;;;;;;5088655;28;20035;-78
2022/04/08 10:33:55;;;;;;;5.35;1.98;;;18.50;99.90;;;;;;5097178;28;20400;-77
2022/04/08 10:36:50;;;;;;;5.60;1.80;;;18.60;99.90;;;;;;5099157;28;20384;-78
2022/04/08 10:39:18;;;;;;;4.45;1.95;;;18.60;99.90;;;;;;5098552;28;20032;-77
2022/04/08 10:41:48;;;;;;;5.95;2.75;;;18.50;99.90;;;;;;5097354;28;20480;-77
2022/04/08 10:44:15;;;;;;;6.13;2.60;;;18.50;99.90;;;;;;5097709;28;20024;-78
2022/04/08 10:46:51;;;;;;;4.82;2.55;;;18.70;99.90;;;;;;5097747;28;20035;-77
2022/04/08 10:49:18;;;;;;;8.15;2.25;;;18.70;99.90;;;;;;5098894;28;20020;-77
2022/04/08 10:51:49;;;;;;;5.60;2.25;;;18.70;99.90;;;;;;5098771;28;20027;-77
2022/04/08 10:54:16;;;;;;;6.13;2.13;;;18.80;99.90;;;;;;5097573;28;20028;-77
2022/04/08 10:56:42;;;;;;;8.25;2.30;;;18.90;99.90;;;;;;5098524;28;20012;-77
2022/04/08 10:59:08;;;;;;;10.80;1.98;;;19.10;99.90;;;;;;5097226;28;20035;-77
2022/04/08 11:01:47;;;;;;;6.15;1.58;;;19.20;99.90;;;;;;5098706;28;20044;-77
2022/04/08 11:04:13;;;;;;;3.63;1.50;;;19.20;99.90;;;;;;5097019;28;20515;-79
2022/04/08 11:06:39;;;;;;;3.40;1.80;;;19.20;99.90;;;;;;5098151;28;20023;-78
2022/04/08 11:09:08;;;;;;;5.88;2.05;;;19.30;99.90;;;;;;5096571;28;20020;-78
2022/04/08 11:11:36;;;;;;;7.68;2.60;;;19.30;99.90;;;;;;5083408;28;20464;-78
2022/04/08 11:14:03;;;;;;;9.98;1.90;;;19.40;99.90;;;;;;5076511;28;20035;-78
2022/04/08 11:16:32;;;;;;;5.00;2.05;;;19.30;99.90;;;;;;5090866;28;20047;-77
2022/04/08 11:18:58;;;;;;;4.53;1.45;;;19.50;99.90;;;;;;5092776;28;20024;-77
2022/04/08 11:21:24;;;;;;;5.50;1.77;;;19.70;99.90;;;;;;5095072;28;20095;-77
2022/04/08 11:24:00;;;;;;;10.25;2.15;;;19.80;99.90;;;;;;5097666;28;20406;-78
2022/04/08 11:26:28;;;;;;;6.88;2.00;;;20.00;99.90;;;;;;5098221;28;20058;-77
2022/04/08 11:28:55;;;;;;;3.15;1.45;;;20.20;99.90;;;;;;5079527;28;20023;-77
2022/04/08 11:31:20;;;;;;;5.88;1.60;;;20.40;99.90;;;;;;5097721;28;20442;-78
2022/04/08 11:33:47;;;;;;;3.42;1.83;;;20.40;99.90;;;;;;5096326;28;20028;-78
2022/04/08 11:36:15;;;;;;;4.55;2.10;;;20.50;99.90;;;;;;5098187;28;20023;-78
2022/04/08 11:38:42;;;;;;;7.40;2.00;;;20.50;99.90;;;;;;5097854;28;20050;-78
2022/04/08 11:41:19;;;;;;;4.10;1.58;;;20.60;99.90;;;;;;5098038;28;20028;-78
2022/04/08 11:43:45;;;;;;;3.22;1.60;;;20.70;99.90;;;;;;5096354;28;20023;-77
2022/04/08 11:46:15;;;;;;;4.43;1.55;;;20.90;99.90;;;;;;5097845;28;20462;-77
2022/04/08 11:48:41;;;;;;;7.85;2.13;;;21.00;99.90;;;;;;5097919;28;20024;-77
2022/04/08 11:51:07;;;;;;;5.88;1.60;;;21.30;99.90;;;;;;5097811;28;20103;-77
2022/04/08 11:53:43;;;;;;;2.88;1.77;;;21.50;99.90;;;;;;5092843;28;20034;-78
2022/04/08 11:56:10;;;;;;;5.97;1.45;;;21.10;98.50;;;;;;5092287;28;20047;-77
2022/04/08 11:58:36;;;;;;;6.50;1.65;;;20.90;98.80;;;;;;5096515;28;20077;-78
2022/04/08 12:01:03;;;;;;;5.68;1.67;;;20.90;99.60;;;;;;5092890;28;20487;-78
2022/04/08 12:03:39;;;;;;;5.72;1.40;;;20.70;98.70;;;;;;5096580;28;20503;-79
2022/04/08 12:06:05;;;;;;;4.88;1.65;;;20.80;99.00;;;;;;5097514;28;20381;-78
2022/04/08 12:08:31;;;;;;;4.38;1.55;;;20.90;99.90;;;;;;5096235;28;20093;-78
2022/04/08 12:11:00;;;;;;;9.45;1.48;;;21.00;98.10;;;;;;5097152;28;20039;-78
2022/04/08 12:13:29;;;;;;;4.65;1.90;;;20.90;98.90;;;;;;5087030;28;20096;-79
2022/04/08 12:15:57;;;;;;;3.70;1.20;;;20.90;99.90;;;;;;5082832;28;20369;-78
2022/04/08 12:18:24;;;;;;;6.15;1.60;;;20.80;99.00;;;;;;5096918;28;20111;-79
2022/04/08 12:20:53;;;;;;;3.22;1.45;;;20.90;99.50;;;;;;5096760;28;20080;-78
2022/04/08 12:23:21;;;;;;;4.45;1.55;;;20.80;98.50;;;;;;5094529;28;20020;-78
2022/04/08 12:25:58;;;;;;;6.22;1.70;;;20.80;99.30;;;;;;5095631;28;20039;-79
2022/04/08 12:28:32;;;;;;;4.78;1.38;;;20.90;98.90;;;;;;5095434;28;20028;-78
2022/04/08 12:31:17;;;;;;;2.67;1.17;;;21.00;98.00;;;;;;5084096;28;20024;-77
2022/04/08 12:33:44;;;;;;;5.05;1.60;;;21.20;98.70;;;;;;5096462;28;20024;-77
2022/04/08 12:36:12;;;;;;;5.80;1.38;;;21.20;98.70;;;;;;5095688;28;20024;-76
2022/04/08 12:38:41;;;;;;;9.00;1.52;;;21.10;98.40;;;;;;5097207;28;20044;-77
2022/04/08 12:41:09;;;;;;;6.50;1.77;;;21.30;97.40;;;;;;5097142;28;20058;-78
2022/04/08 12:43:35;;;;;;;3.95;1.42;;;21.30;97.20;;;;;;5096877;28;20103;-77
2022/04/08 12:46:01;;;;;;;3.00;1.00;;;21.10;98.10;;;;;;5096984;28;20107;-79